Time;durP1;ratioP1;P1;durP2;ratioP2;P2;SDS_P1;SDS_P2;PMS_P1;PMS_P2;Temp;Humidity;BMP_temperature;BMP_pressure;BME280_temperature;BME280_humidity;BME280_pressure;Samples;Min_cycle;Max_cycle;Signal;HPM_P1;HPM_P2
2024/02/27 00:01:50;;;;;;;24.77;12.57;;;6.50;99.90;;;;;;4185233;28;20452;-76
2024/02/27 00:03:52;;;;;;;20.13;11.07;;;6.50;99.90;;;;;;4187262;28;20248;-75
2024/02/27 00:05:54;;;;;;;22.20;11.30;;;6.50;99.90;;;;;;4182726;28;20460;-76
2024/02/27 00:07:56;;;;;;;22.23;11.67;;;6.50;99.90;;;;;;4185918;28;20456;-77
2024/02/27 00:09:59;;;;;;;26.20;11.73;;;6.50;99.90;;;;;;4186987;28;20191;-75
2024/02/27 00:12:00;;;;;;;20.27;11.23;;;6.50;99.90;;;;;;4192035;28;20554;-76
2024/02/27 00:14:02;;;;;;;22.80;11.43;;;6.50;99.90;;;;;;4186114;28;20229;-76
2024/02/27 00:16:05;;;;;;;24.30;11.60;;;6.40;99.90;;;;;;4183925;28;20209;-77
2024/02/27 00:18:06;;;;;;;21.67;11.17;;;6.40;99.90;;;;;;4187422;28;20210;-76
2024/02/27 00:20:09;;;;;;;20.53;11.57;;;6.40;99.90;;;;;;4187362;28;20476;-76
2024/02/27 00:22:11;;;;;;;25.17;11.93;;;6.40;99.90;;;;;;4185203;28;20206;-77
2024/02/27 00:24:13;;;;;;;23.27;11.53;;;6.40;99.90;;;;;;4188934;28;20481;-77
2024/02/27 00:26:16;;;;;;;21.33;11.00;;;6.40;99.90;;;;;;4185746;28;20240;-76
2024/02/27 00:28:18;;;;;;;21.17;11.63;;;6.40;99.90;;;;;;4183217;28;20440;-76
2024/02/27 00:30:19;;;;;;;20.57;11.63;;;6.80;99.90;;;;;;4185136;28;20612;-76
2024/02/27 00:32:21;;;;;;;19.47;11.13;;;6.30;99.90;;;;;;4185613;28;20197;-77
2024/02/27 00:34:22;;;;;;;20.93;11.07;;;6.40;99.90;;;;;;4188510;28;20255;-78
2024/02/27 00:36:24;;;;;;;22.17;10.80;;;6.30;99.90;;;;;;4197793;28;20701;-77
2024/02/27 00:38:26;;;;;;;22.07;11.33;;;6.30;99.90;;;;;;4195983;28;20420;-78
2024/02/27 00:40:27;;;;;;;22.57;11.77;;;6.30;99.90;;;;;;4197352;28;20518;-76
2024/02/27 00:42:31;;;;;;;23.60;11.10;;;6.30;99.90;;;;;;4199540;28;20465;-77
2024/02/27 00:44:33;;;;;;;18.70;10.53;;;6.30;99.90;;;;;;4199697;28;20490;-77
2024/02/27 00:46:34;;;;;;;22.43;10.73;;;6.30;99.90;;;;;;4197355;28;20451;-76
2024/02/27 00:48:35;;;;;;;20.30;10.37;;;6.30;99.90;;;;;;4197649;28;20202;-77
2024/02/27 00:50:39;;;;;;;22.07;11.37;;;6.30;99.90;;;;;;4201777;28;20213;-78
2024/02/27 00:52:41;;;;;;;20.10;10.50;;;6.30;99.90;;;;;;4202276;28;20448;-77
2024/02/27 00:54:43;;;;;;;20.47;10.73;;;6.20;99.90;;;;;;4199147;28;20556;-78
2024/02/27 00:56:45;;;;;;;17.00;10.17;;;6.30;99.90;;;;;;4200456;28;20459;-77
2024/02/27 00:58:48;;;;;;;18.40;10.23;;;6.30;99.90;;;;;;4191331;28;20494;-76
2024/02/27 01:00:50;;;;;;;20.03;10.27;;;6.30;99.90;;;;;;4193878;28;20441;-76
2024/02/27 01:02:52;;;;;;;20.20;10.30;;;6.30;99.90;;;;;;4195626;28;20706;-77
2024/02/27 01:04:54;;;;;;;19.97;10.23;;;6.30;99.90;;;;;;4194710;28;20480;-76
2024/02/27 01:06:55;;;;;;;17.70;9.83;;;6.30;99.90;;;;;;4190587;28;20471;-78
2024/02/27 01:08:57;;;;;;;19.07;10.43;;;6.30;99.90;;;;;;4192279;28;20248;-77
2024/02/27 01:10:59;;;;;;;19.97;10.33;;;6.30;99.90;;;;;;4192067;28;20543;-78
2024/02/27 01:13:01;;;;;;;20.50;10.30;;;6.30;99.90;;;;;;4187941;28;20975;-77
2024/02/27 01:15:04;;;;;;;19.73;10.07;;;6.30;99.90;;;;;;4194058;28;20464;-77
2024/02/27 01:17:06;;;;;;;17.40;10.03;;;6.30;99.90;;;;;;4189846;28;20205;-76
2024/02/27 01:19:08;;;;;;;18.67;9.40;;;6.30;99.90;;;;;;4188576;28;20935;-76
2024/02/27 01:21:11;;;;;;;17.57;8.97;;;6.30;99.90;;;;;;4193841;28;20216;-77
2024/02/27 01:23:13;;;;;;;17.90;9.97;;;6.30;99.90;;;;;;4189976;28;20452;-77
2024/02/27 01:25:18;;;;;;;16.60;9.50;;;6.30;99.90;;;;;;4191078;28;20472;-77
2024/02/27 01:27:20;;;;;;;17.33;9.57;;;6.50;99.90;;;;;;4191250;28;20456;-76
2024/02/27 01:29:23;;;;;;;18.90;9.43;;;6.30;99.90;;;;;;4193836;28;20206;-77
2024/02/27 01:31:26;;;;;;;18.20;9.57;;;6.30;99.90;;;;;;4190693;28;20460;-78
2024/02/27 01:33:28;;;;;;;18.90;8.63;;;6.30;99.90;;;;;;4183693;28;20490;-76
2024/02/27 01:35:30;;;;;;;15.70;8.80;;;6.30;99.90;;;;;;4192363;28;20806;-78
2024/02/27 01:37:33;;;;;;;18.00;8.33;;;6.30;99.90;;;;;;4195528;28;20467;-76
2024/02/27 01:39:35;;;;;;;17.93;9.23;;;6.30;99.90;;;;;;4195047;28;20533;-76
2024/02/27 01:41:39;;;;;;;17.80;9.30;;;6.30;99.90;;;;;;4190252;28;20479;-78
2024/02/27 01:43:41;;;;;;;15.97;8.20;;;6.30;99.90;;;;;;4191208;28;20444;-78
2024/02/27 01:45:43;;;;;;;14.50;8.47;;;6.20;99.90;;;;;;4184990;28;20445;-77
2024/02/27 01:47:47;;;;;;;16.87;8.40;;;6.20;99.90;;;;;;4185175;28;21014;-77
2024/02/27 01:49:49;;;;;;;17.83;8.50;;;6.20;99.90;;;;;;4189837;28;20529;-78
2024/02/27 01:51:52;;;;;;;17.90;8.23;;;6.40;99.90;;;;;;4187651;28;20455;-78
2024/02/27 01:53:59;;;;;;;12.97;7.60;;;6.20;99.90;;;;;;4184785;28;20457;-77
2024/02/27 01:56:01;;;;;;;13.97;8.07;;;6.20;99.90;;;;;;4184337;28;20252;-78
2024/02/27 01:58:04;;;;;;;17.03;8.90;;;6.10;99.90;;;;;;4186518;28;20543;-77
2024/02/27 02:00:09;;;;;;;14.73;7.90;;;6.10;99.90;;;;;;4188946;28;20567;-77
2024/02/27 02:02:11;;;;;;;14.20;7.00;;;6.10;99.90;;;;;;4187043;28;20444;-77
2024/02/27 02:04:26;;;;;;;13.83;7.53;;;6.10;99.90;;;;;;4187918;28;20464;-77
2024/02/27 02:06:28;;;;;;;17.00;8.00;;;6.10;99.90;;;;;;4186583;28;20543;-77
2024/02/27 02:08:30;;;;;;;14.57;7.57;;;6.10;99.90;;;;;;4187419;28;20461;-78
2024/02/27 02:10:31;;;;;;;15.97;7.90;;;6.00;99.90;;;;;;4185993;28;20459;-76
2024/02/27 02:12:35;;;;;;;15.60;7.97;;;6.00;99.90;;;;;;4186956;28;20544;-76
2024/02/27 02:14:42;;;;;;;14.33;7.70;;;6.00;99.90;;;;;;4185745;28;20521;-76
2024/02/27 02:16:44;;;;;;;13.03;7.77;;;5.90;99.90;;;;;;4185809;28;20577;-77
2024/02/27 02:18:48;;;;;;;15.00;7.83;;;5.90;99.90;;;;;;4185245;28;20500;-77
2024/02/27 02:20:50;;;;;;;16.03;7.50;;;5.10;99.90;;;;;;4186183;28;20575;-77
2024/02/27 02:22:52;;;;;;;12.13;7.17;;;5.80;99.90;;;;;;4185363;28;20453;-77
2024/02/27 02:24:57;;;;;;;14.40;7.17;;;5.80;99.90;;;;;;4186224;28;20510;-77
2024/02/27 02:26:59;;;;;;;15.13;7.73;;;5.80;99.90;;;;;;4185516;28;20460;-78
2024/02/27 02:29:01;;;;;;;15.50;7.37;;;5.80;99.90;;;;;;4183036;28;20467;-77
2024/02/27 02:31:03;;;;;;;13.30;6.80;;;5.80;99.90;;;;;;4185443;28;20463;-76
2024/02/27 02:33:06;;;;;;;13.10;6.90;;;5.80;99.90;;;;;;4187353;28;20447;-76
2024/02/27 02:35:09;;;;;;;13.90;7.33;;;5.80;99.90;;;;;;4185265;28;20521;-76
2024/02/27 02:37:12;;;;;;;15.67;7.43;;;5.80;99.90;;;;;;4185906;28;20841;-76
2024/02/27 02:39:17;;;;;;;12.03;6.70;;;5.30;99.90;;;;;;4185661;28;20443;-76
2024/02/27 02:41:17;;;;;;;13.07;6.77;;;5.70;99.90;;;;;;4185248;28;20454;-76
2024/02/27 02:43:19;;;;;;;12.00;6.57;;;5.70;99.90;;;;;;4184329;28;20526;-76
2024/02/27 02:45:21;;;;;;;13.57;6.70;;;5.70;99.90;;;;;;4184260;28;20260;-77
2024/02/27 02:47:23;;;;;;;13.17;6.30;;;5.60;99.90;;;;;;4185714;28;20965;-76
2024/02/27 02:49:27;;;;;;;11.17;6.20;;;5.60;99.90;;;;;;4186562;28;20494;-76
2024/02/27 02:51:31;;;;;;;11.17;5.93;;;5.60;99.90;;;;;;4186619;28;21122;-77
2024/02/27 02:53:33;;;;;;;10.10;5.80;;;5.60;99.90;;;;;;4191416;28;20478;-77
2024/02/27 02:55:35;;;;;;;10.23;5.87;;;5.60;99.90;;;;;;4193095;28;21050;-76
2024/02/27 02:57:38;;;;;;;14.30;6.30;;;5.50;99.90;;;;;;4189649;28;20454;-77
2024/02/27 02:59:40;;;;;;;10.27;6.10;;;5.60;99.90;;;;;;4184261;28;20813;-78
2024/02/27 03:01:42;;;;;;;9.97;5.80;;;5.50;99.90;;;;;;4187977;28;20459;-77
2024/02/27 03:03:43;;;;;;;10.97;6.00;;;5.50;99.90;;;;;;4186288;28;20517;-77
2024/02/27 03:05:46;;;;;;;8.97;5.10;;;5.50;99.90;;;;;;4187063;28;20456;-76
2024/02/27 03:07:48;;;;;;;8.87;5.10;;;5.50;99.90;;;;;;4198964;28;20530;-76
2024/02/27 03:09:51;;;;;;;9.23;5.70;;;5.50;99.90;;;;;;4203772;28;20481;-77
2024/02/27 03:11:52;;;;;;;9.43;5.10;;;5.40;99.90;;;;;;4205576;28;20493;-75
2024/02/27 03:13:54;;;;;;;10.00;5.57;;;5.40;99.90;;;;;;4202937;28;20424;-77
2024/02/27 03:15:57;;;;;;;10.07;5.13;;;5.40;99.90;;;;;;4209194;28;20212;-77
2024/02/27 03:17:59;;;;;;;9.20;5.00;;;5.50;99.90;;;;;;4208672;28;20463;-74
2024/02/27 03:20:01;;;;;;;9.87;5.30;;;5.40;99.90;;;;;;4190988;28;20479;-76
2024/02/27 03:22:03;;;;;;;8.50;5.00;;;5.40;99.90;;;;;;4188815;28;20458;-76
2024/02/27 03:24:07;;;;;;;7.67;4.50;;;5.40;99.90;;;;;;4186415;28;20468;-74
2024/02/27 03:26:16;;;;;;;6.37;4.53;;;5.40;99.90;;;;;;4185803;28;20209;-76
2024/02/27 03:28:18;;;;;;;8.53;4.50;;;5.40;99.90;;;;;;4186551;28;20486;-77
2024/02/27 03:30:20;;;;;;;8.53;4.73;;;5.40;99.90;;;;;;4184221;28;20556;-77
2024/02/27 03:32:22;;;;;;;9.60;4.33;;;5.40;99.90;;;;;;4183308;28;20456;-77
2024/02/27 03:34:26;;;;;;;8.00;5.37;;;5.40;99.90;;;;;;4183967;28;20540;-77
2024/02/27 03:36:27;;;;;;;11.50;5.67;;;5.40;99.90;;;;;;4186072;28;20822;-77
2024/02/27 03:38:29;;;;;;;11.50;5.73;;;5.40;99.90;;;;;;4184346;28;20955;-77
2024/02/27 03:40:31;;;;;;;9.47;5.20;;;5.30;99.90;;;;;;4183345;28;20900;-77
2024/02/27 03:42:35;;;;;;;8.60;5.20;;;5.30;99.90;;;;;;4188630;28;20460;-77
2024/02/27 03:44:37;;;;;;;8.23;4.50;;;5.30;99.90;;;;;;4188667;28;20471;-77
2024/02/27 03:46:38;;;;;;;10.17;5.13;;;5.30;99.90;;;;;;4186280;28;20471;-77
2024/02/27 03:48:42;;;;;;;8.33;4.50;;;5.30;99.90;;;;;;4182580;28;20440;-77
2024/02/27 03:50:46;;;;;;;7.37;4.50;;;5.40;99.90;;;;;;4185510;28;20231;-77
2024/02/27 03:52:47;;;;;;;7.73;4.90;;;5.30;99.90;;;;;;4185595;28;21352;-77
2024/02/27 03:54:50;;;;;;;9.30;4.63;;;5.30;99.90;;;;;;4184541;28;20464;-77
2024/02/27 03:56:52;;;;;;;7.27;4.70;;;5.30;99.90;;;;;;4185244;28;20205;-77
2024/02/27 03:58:55;;;;;;;6.47;4.43;;;5.30;99.90;;;;;;4183652;28;20451;-78
2024/02/27 04:00:57;;;;;;;7.33;4.53;;;5.30;99.90;;;;;;4183050;28;20478;-77
2024/02/27 04:02:59;;;;;;;6.33;4.10;;;5.30;99.90;;;;;;4189879;28;20541;-77
2024/02/27 04:05:01;;;;;;;8.17;4.63;;;5.30;99.90;;;;;;4184761;28;21067;-77
2024/02/27 04:07:04;;;;;;;6.53;4.07;;;5.30;99.90;;;;;;4183936;28;20448;-76
2024/02/27 04:09:06;;;;;;;7.00;4.17;;;5.30;99.90;;;;;;4185703;28;20490;-76
2024/02/27 04:11:08;;;;;;;9.27;4.37;;;5.30;99.90;;;;;;4184166;28;20480;-76
2024/02/27 04:13:10;;;;;;;7.07;4.30;;;5.30;99.90;;;;;;4184541;28;20463;-76
2024/02/27 04:15:13;;;;;;;6.80;4.07;;;5.30;99.90;;;;;;4182486;28;20894;-76
2024/02/27 04:17:15;;;;;;;6.07;3.93;;;5.20;99.90;;;;;;4185152;28;20467;-76
2024/02/27 04:19:17;;;;;;;7.67;4.40;;;5.20;99.90;;;;;;4181094;28;20491;-76
2024/02/27 04:21:19;;;;;;;7.40;3.77;;;5.20;99.90;;;;;;4189584;28;20497;-76
2024/02/27 04:23:20;;;;;;;7.27;3.80;;;5.40;99.90;;;;;;4183621;28;20487;-76
2024/02/27 04:25:22;;;;;;;7.47;3.73;;;5.50;99.90;;;;;;4184125;28;21001;-76
2024/02/27 04:27:25;;;;;;;7.33;3.90;;;5.10;99.90;;;;;;4180637;28;20262;-76
2024/02/27 04:29:27;;;;;;;7.50;3.87;;;5.10;99.90;;;;;;4188046;28;20529;-75
2024/02/27 04:31:30;;;;;;;6.63;3.67;;;5.10;99.90;;;;;;4182341;28;21219;-75
2024/02/27 04:33:31;;;;;;;5.90;3.37;;;5.10;99.90;;;;;;4182851;28;20470;-76
2024/02/27 04:35:33;;;;;;;5.90;3.33;;;5.10;99.90;;;;;;4185548;28;20525;-75
2024/02/27 04:37:37;;;;;;;6.17;3.63;;;5.10;99.90;;;;;;4187081;28;20210;-76
2024/02/27 04:39:44;;;;;;;5.67;3.47;;;5.00;99.90;;;;;;4184347;28;20977;-76
2024/02/27 04:41:46;;;;;;;6.60;3.63;;;5.00;99.90;;;;;;4185364;28;20518;-76
2024/02/27 04:43:48;;;;;;;5.87;3.53;;;5.00;99.90;;;;;;4185712;28;20460;-76
2024/02/27 04:45:50;;;;;;;5.63;3.20;;;5.00;99.90;;;;;;4182785;28;21189;-76
2024/02/27 04:47:55;;;;;;;4.67;3.13;;;5.00;99.90;;;;;;4184300;28;20947;-73
2024/02/27 04:49:57;;;;;;;5.87;3.60;;;5.00;99.90;;;;;;4183617;28;20826;-73
2024/02/27 04:51:59;;;;;;;5.47;3.43;;;4.90;99.90;;;;;;4185670;28;21272;-74
2024/02/27 04:54:05;;;;;;;7.13;3.37;;;4.90;99.90;;;;;;4183486;28;20538;-73
2024/02/27 04:56:06;;;;;;;5.83;2.90;;;5.00;99.90;;;;;;4179320;28;20448;-73
2024/02/27 04:58:08;;;;;;;5.80;3.20;;;4.90;99.90;;;;;;4183249;28;20443;-74
2024/02/27 05:00:14;;;;;;;5.23;3.30;;;4.90;99.90;;;;;;4180007;28;20532;-73
2024/02/27 05:02:16;;;;;;;8.00;3.00;;;4.90;99.90;;;;;;4188755;28;20458;-74
2024/02/27 05:04:19;;;;;;;6.00;3.37;;;5.20;99.90;;;;;;4191426;28;20933;-75
2024/02/27 05:06:21;;;;;;;5.80;3.50;;;4.70;99.90;;;;;;4177680;28;21146;-73
2024/02/27 05:08:23;;;;;;;5.93;3.27;;;4.90;99.90;;;;;;4176597;28;20444;-75
2024/02/27 05:10:25;;;;;;;5.53;3.13;;;4.90;99.90;;;;;;4181873;28;20471;-75
2024/02/27 05:12:26;;;;;;;5.30;3.07;;;4.80;99.90;;;;;;4189322;28;20464;-74
2024/02/27 05:14:28;;;;;;;6.37;3.60;;;4.80;99.90;;;;;;4183990;28;20471;-74
2024/02/27 05:16:30;;;;;;;4.30;3.10;;;4.90;99.90;;;;;;4187298;28;20259;-74
2024/02/27 05:18:32;;;;;;;7.03;3.60;;;4.80;99.90;;;;;;4186433;28;20491;-75
2024/02/27 05:20:35;;;;;;;5.90;3.70;;;4.80;99.90;;;;;;4183830;28;20505;-74
2024/02/27 05:22:36;;;;;;;5.33;3.50;;;4.80;99.90;;;;;;4182192;28;20443;-74
2024/02/27 05:24:39;;;;;;;6.73;3.57;;;4.80;99.90;;;;;;4189707;28;20471;-74
2024/02/27 05:26:41;;;;;;;6.70;3.53;;;4.80;99.90;;;;;;4186625;28;20212;-74
2024/02/27 05:28:43;;;;;;;4.53;3.27;;;4.80;99.90;;;;;;4189615;28;20892;-75
2024/02/27 05:30:46;;;;;;;5.70;3.67;;;4.80;99.90;;;;;;4189012;28;20510;-74
2024/02/27 05:32:47;;;;;;;6.40;3.17;;;4.70;99.90;;;;;;4196274;28;20499;-73
2024/02/27 05:34:49;;;;;;;5.97;3.60;;;4.80;99.90;;;;;;4184773;28;20471;-74
2024/02/27 05:36:53;;;;;;;5.53;3.10;;;4.70;99.90;;;;;;4190186;28;20461;-73
2024/02/27 05:38:55;;;;;;;5.23;3.60;;;4.70;99.90;;;;;;4189804;28;20461;-81
2024/02/27 05:40:57;;;;;;;4.37;3.27;;;4.70;99.90;;;;;;4188549;28;20480;-75
2024/02/27 05:42:58;;;;;;;5.53;2.90;;;4.60;99.90;;;;;;4190633;28;21018;-74
2024/02/27 05:45:00;;;;;;;6.80;3.43;;;4.60;99.90;;;;;;4188548;28;20493;-74
2024/02/27 05:47:02;;;;;;;5.63;3.03;;;4.60;99.90;;;;;;4190637;28;20486;-75
2024/02/27 05:49:04;;;;;;;5.97;3.57;;;4.60;99.90;;;;;;4190430;28;20467;-75
2024/02/27 05:51:06;;;;;;;6.93;3.60;;;4.60;99.90;;;;;;4188979;28;20459;-75
2024/02/27 05:53:10;;;;;;;5.43;3.67;;;4.50;99.90;;;;;;4180539;28;20809;-74
2024/02/27 05:55:12;;;;;;;6.40;3.67;;;4.60;99.90;;;;;;4191110;28;20472;-74
2024/02/27 05:57:14;;;;;;;6.17;3.60;;;4.60;99.90;;;;;;4184673;28;20446;-74
2024/02/27 05:59:16;;;;;;;5.87;3.63;;;4.50;99.90;;;;;;4186547;28;20483;-74
2024/02/27 06:01:18;;;;;;;7.37;3.73;;;4.50;99.90;;;;;;4187111;28;20490;-75
2024/02/27 06:03:20;;;;;;;5.73;3.90;;;4.50;99.90;;;;;;4185479;28;20447;-74
2024/02/27 06:05:22;;;;;;;5.77;3.50;;;4.50;99.90;;;;;;4180643;28;20487;-74
2024/02/27 06:07:24;;;;;;;5.07;3.77;;;4.50;99.90;;;;;;4183958;28;20451;-74
2024/02/27 06:09:28;;;;;;;5.50;3.50;;;4.50;99.90;;;;;;4183389;28;20454;-75
2024/02/27 06:11:30;;;;;;;6.47;3.73;;;4.50;99.90;;;;;;4184791;28;20447;-74
2024/02/27 06:13:32;;;;;;;7.40;3.83;;;4.40;99.90;;;;;;4187668;28;20584;-74
2024/02/27 06:15:34;;;;;;;5.80;3.60;;;4.50;99.90;;;;;;4183775;28;20474;-74
2024/02/27 06:17:36;;;;;;;8.03;4.03;;;4.50;99.90;;;;;;4185624;28;20559;-74
2024/02/27 06:19:43;;;;;;;7.00;4.17;;;4.40;99.90;;;;;;4185029;28;20455;-75
2024/02/27 06:24:05;;;;;;;5.93;3.57;;;4.40;99.90;;;;;;4188718;28;20534;-75
2024/02/27 06:26:09;;;;;;;6.73;4.10;;;4.40;99.90;;;;;;4186199;28;20452;-74
2024/02/27 06:28:11;;;;;;;5.77;3.93;;;4.40;99.90;;;;;;4184235;28;20449;-74
2024/02/27 06:30:14;;;;;;;6.20;4.13;;;4.40;99.90;;;;;;4191781;28;20449;-74
2024/02/27 06:32:16;;;;;;;7.87;4.27;;;4.40;99.90;;;;;;4183534;28;20546;-75
2024/02/27 06:34:17;;;;;;;7.23;4.37;;;4.40;99.90;;;;;;4187896;28;20469;-77
2024/02/27 06:36:19;;;;;;;7.63;4.53;;;4.40;99.90;;;;;;4184086;28;20942;-74
2024/02/27 06:38:21;;;;;;;6.87;4.33;;;4.40;99.90;;;;;;4187276;28;20255;-75
2024/02/27 06:40:23;;;;;;;11.07;4.90;;;4.40;99.90;;;;;;4187875;28;20464;-75
2024/02/27 06:42:26;;;;;;;8.23;4.57;;;4.40;99.90;;;;;;4184552;28;20520;-74
2024/02/27 06:44:28;;;;;;;8.13;4.40;;;4.30;99.90;;;;;;4204949;28;20477;-74
2024/02/27 06:46:33;;;;;;;6.90;4.57;;;4.40;99.90;;;;;;4185798;28;20449;-76
2024/02/27 06:48:35;;;;;;;8.87;4.47;;;4.40;99.90;;;;;;4203002;28;20507;-74
2024/02/27 06:50:38;;;;;;;6.63;4.10;;;4.40;99.90;;;;;;4186834;28;20459;-74
2024/02/27 06:52:40;;;;;;;6.77;4.07;;;4.50;99.90;;;;;;4187218;28;20556;-74
2024/02/27 06:54:43;;;;;;;9.17;4.67;;;4.40;99.90;;;;;;4189639;28;20467;-74
2024/02/27 06:56:45;;;;;;;7.87;4.60;;;4.40;99.90;;;;;;4180432;28;20453;-76
2024/02/27 06:58:50;;;;;;;9.73;5.10;;;4.40;99.90;;;;;;4188079;28;20484;-75
2024/02/27 07:00:52;;;;;;;10.97;5.03;;;4.40;99.90;;;;;;4188302;28;20937;-75
2024/02/27 07:02:54;;;;;;;11.10;5.70;;;4.40;99.90;;;;;;4188786;28;21004;-77
2024/02/27 07:04:56;;;;;;;11.70;5.70;;;4.50;99.90;;;;;;4190731;28;20464;-80
2024/02/27 07:06:58;;;;;;;9.40;5.70;;;4.50;99.90;;;;;;4196031;28;20461;-79
2024/02/27 07:09:02;;;;;;;9.60;5.40;;;4.50;99.90;;;;;;4188082;28;21302;-80
2024/02/27 07:11:06;;;;;;;9.97;6.00;;;4.60;99.90;;;;;;4193299;28;20466;-75
2024/02/27 07:13:09;;;;;;;11.33;6.03;;;4.50;99.90;;;;;;4168234;28;20469;-75
2024/02/27 07:15:12;;;;;;;15.13;6.07;;;4.50;99.90;;;;;;4185559;28;20716;-75
2024/02/27 07:17:16;;;;;;;11.90;6.57;;;4.50;99.90;;;;;;4183837;28;20454;-75
2024/02/27 07:19:19;;;;;;;10.03;5.73;;;4.50;99.90;;;;;;4184512;28;20444;-77
2024/02/27 07:21:22;;;;;;;11.73;5.67;;;4.50;99.90;;;;;;4183161;28;20490;-75
2024/02/27 07:23:27;;;;;;;10.53;5.80;;;4.50;99.90;;;;;;4188746;28;20447;-75
2024/02/27 07:25:28;;;;;;;10.77;6.23;;;4.50;99.90;;;;;;4185502;28;20469;-77
2024/02/27 07:27:33;;;;;;;10.77;6.40;;;4.50;99.90;;;;;;4187524;28;20493;-75
2024/02/27 07:29:35;;;;;;;10.33;6.00;;;4.60;99.90;;;;;;4184308;28;20209;-77
2024/02/27 07:31:39;;;;;;;10.00;5.70;;;4.60;99.90;;;;;;4189394;28;20459;-75
2024/02/27 07:33:41;;;;;;;10.10;6.30;;;4.60;99.90;;;;;;4182263;28;20962;-75
2024/02/27 07:35:42;;;;;;;12.40;6.47;;;4.60;99.90;;;;;;4186469;28;20553;-76
2024/02/27 07:37:44;;;;;;;9.80;5.77;;;4.60;99.90;;;;;;4192091;28;20438;-75
2024/02/27 07:39:47;;;;;;;13.17;6.60;;;4.60;99.90;;;;;;4189219;28;20513;-76
2024/02/27 07:41:48;;;;;;;10.23;5.70;;;4.70;99.90;;;;;;4188542;28;20514;-75
2024/02/27 07:43:50;;;;;;;12.83;6.80;;;4.60;99.90;;;;;;4188354;28;20948;-75
2024/02/27 07:45:53;;;;;;;11.83;6.23;;;4.70;99.90;;;;;;4189908;28;20204;-75
2024/02/27 07:47:56;;;;;;;10.80;6.27;;;4.70;99.90;;;;;;4198395;28;20481;-76
2024/02/27 07:49:57;;;;;;;13.13;6.80;;;4.70;99.90;;;;;;4187790;28;20451;-76
2024/02/27 07:51:59;;;;;;;14.03;6.63;;;4.80;99.90;;;;;;4198690;28;20449;-75
2024/02/27 07:54:03;;;;;;;11.10;6.80;;;4.70;99.90;;;;;;4184223;28;20491;-75
2024/02/27 07:56:05;;;;;;;13.43;6.80;;;4.80;99.90;;;;;;4181359;28;20476;-75
2024/02/27 07:58:08;;;;;;;12.23;7.03;;;4.70;99.90;;;;;;4183384;28;20459;-75
2024/02/27 08:00:11;;;;;;;11.97;6.63;;;4.80;99.90;;;;;;4187715;28;20473;-75
2024/02/27 08:02:13;;;;;;;12.40;7.07;;;4.80;99.90;;;;;;4187056;28;20511;-76
2024/02/27 08:04:19;;;;;;;12.83;6.77;;;4.80;99.90;;;;;;4184497;28;20906;-77
2024/02/27 08:06:22;;;;;;;12.77;7.23;;;4.80;99.90;;;;;;4188846;28;20865;-76
2024/02/27 08:08:28;;;;;;;14.10;7.60;;;4.80;99.90;;;;;;4201604;28;20454;-74
2024/02/27 08:12:52;;;;;;;14.77;7.27;;;4.80;99.90;;;;;;4203578;28;20451;-75
2024/02/27 08:14:54;;;;;;;11.63;6.93;;;4.80;99.90;;;;;;4202859;28;20474;-77
2024/02/27 08:16:57;;;;;;;13.30;6.70;;;4.90;99.90;;;;;;4204241;28;20454;-76
2024/02/27 08:19:04;;;;;;;15.23;7.40;;;4.90;99.90;;;;;;4199953;28;20444;-78
2024/02/27 08:21:07;;;;;;;13.80;8.20;;;4.90;99.90;;;;;;4185099;28;20963;-78
2024/02/27 08:23:09;;;;;;;14.30;8.20;;;5.10;99.90;;;;;;4190330;28;20490;-79
2024/02/27 08:25:12;;;;;;;18.13;9.47;;;5.10;99.90;;;;;;4185664;28;20488;-79
2024/02/27 08:27:14;;;;;;;16.00;9.27;;;5.10;99.90;;;;;;4185510;28;20459;-79
2024/02/27 08:29:16;;;;;;;15.37;9.20;;;5.10;99.90;;;;;;4184576;28;20456;-77
2024/02/27 08:31:19;;;;;;;16.37;9.40;;;5.50;99.90;;;;;;4185853;28;20460;-77
2024/02/27 08:33:21;;;;;;;15.77;9.37;;;5.20;99.90;;;;;;4190826;28;20551;-79
2024/02/27 08:35:23;;;;;;;18.70;9.93;;;5.20;99.90;;;;;;4184642;28;20576;-78
2024/02/27 08:37:27;;;;;;;16.70;10.13;;;5.20;99.90;;;;;;4182829;28;20464;-79
2024/02/27 08:39:29;;;;;;;17.70;10.40;;;5.30;99.90;;;;;;4187337;28;20535;-78
2024/02/27 08:41:33;;;;;;;17.33;10.60;;;5.30;99.90;;;;;;4194088;28;20484;-79
2024/02/27 08:43:35;;;;;;;18.87;11.33;;;5.30;99.90;;;;;;4196724;28;20448;-78
2024/02/27 08:45:38;;;;;;;21.87;12.17;;;5.40;99.90;;;;;;4185441;28;20495;-79
2024/02/27 08:47:40;;;;;;;21.00;11.73;;;5.40;99.90;;;;;;4186264;28;20483;-78
2024/02/27 08:49:45;;;;;;;22.67;12.43;;;5.40;99.90;;;;;;4186986;28;20480;-78
2024/02/27 08:51:47;;;;;;;27.83;13.53;;;5.50;99.90;;;;;;4192563;28;20542;-77
2024/02/27 08:53:51;;;;;;;25.00;13.73;;;5.50;99.90;;;;;;4186901;28;20479;-80
2024/02/27 08:55:52;;;;;;;22.40;14.13;;;5.40;99.90;;;;;;4195508;28;20496;-78
2024/02/27 08:57:54;;;;;;;23.10;13.40;;;5.70;99.90;;;;;;4193851;28;20907;-79
2024/02/27 08:59:55;;;;;;;24.73;14.30;;;5.70;99.90;;;;;;4209674;28;20216;-80
2024/02/27 09:01:57;;;;;;;22.97;13.90;;;5.80;99.90;;;;;;4197759;28;20488;-77
2024/02/27 09:03:58;;;;;;;30.27;14.67;;;5.80;99.90;;;;;;4194201;28;20456;-79
2024/02/27 09:06:01;;;;;;;23.53;13.20;;;5.80;99.90;;;;;;4194310;28;21015;-81
2024/02/27 09:08:03;;;;;;;25.60;13.50;;;5.90;99.90;;;;;;4189636;28;20198;-81
2024/02/27 09:10:08;;;;;;;26.03;13.80;;;5.80;99.90;;;;;;4189633;28;20467;-79
2024/02/27 09:12:10;;;;;;;24.53;14.43;;;5.80;99.90;;;;;;4204484;28;21274;-80
2024/02/27 09:14:12;;;;;;;23.37;13.40;;;5.80;99.90;;;;;;4188433;28;20233;-78
2024/02/27 09:16:14;;;;;;;23.80;13.37;;;5.90;99.90;;;;;;4188493;28;20228;-79
2024/02/27 09:18:16;;;;;;;20.63;13.03;;;5.90;99.90;;;;;;4198192;28;20448;-77
2024/02/27 09:20:18;;;;;;;24.20;12.60;;;5.90;99.90;;;;;;4199043;28;20494;-77
2024/02/27 09:22:20;;;;;;;20.93;12.87;;;6.00;99.90;;;;;;4193306;28;20214;-78
2024/02/27 09:24:22;;;;;;;21.53;12.63;;;6.00;99.90;;;;;;4194229;28;20574;-77
2024/02/27 09:26:25;;;;;;;23.90;11.53;;;6.10;99.90;;;;;;4195317;28;20605;-77
2024/02/27 09:28:30;;;;;;;25.30;12.50;;;6.10;99.90;;;;;;4193364;28;20454;-79
2024/02/27 09:30:32;;;;;;;23.90;13.40;;;6.10;99.90;;;;;;4189494;28;20494;-78
2024/02/27 09:32:34;;;;;;;20.43;11.40;;;6.10;99.90;;;;;;4191720;28;20447;-78
2024/02/27 09:34:36;;;;;;;20.13;11.40;;;6.10;99.90;;;;;;4186423;28;20740;-77
2024/02/27 09:36:37;;;;;;;25.27;12.13;;;6.20;99.90;;;;;;4185069;28;20449;-77
2024/02/27 09:38:38;;;;;;;21.23;11.57;;;6.20;99.90;;;;;;4191484;28;20300;-76
2024/02/27 09:40:42;;;;;;;17.90;11.40;;;6.20;99.90;;;;;;4188008;28;20214;-77
2024/02/27 09:42:54;;;;;;;19.73;11.80;;;6.30;99.90;;;;;;4189730;28;20592;-76
2024/02/27 09:44:59;;;;;;;19.33;11.40;;;6.40;99.90;;;;;;4188934;28;20611;-75
2024/02/27 09:47:05;;;;;;;23.43;12.40;;;6.40;99.90;;;;;;4192282;28;20934;-75
2024/02/27 09:49:09;;;;;;;20.37;11.50;;;6.50;99.90;;;;;;4189738;28;20213;-75
2024/02/27 09:51:12;;;;;;;22.63;11.90;;;6.50;99.90;;;;;;4187372;28;20221;-75
2024/02/27 09:53:14;;;;;;;20.33;12.20;;;6.60;99.90;;;;;;4181614;28;20460;-75
2024/02/27 09:55:17;;;;;;;18.70;11.43;;;6.60;99.90;;;;;;4189407;28;20253;-76
2024/02/27 09:57:19;;;;;;;20.70;12.07;;;6.70;99.90;;;;;;4193925;28;20224;-76
2024/02/27 09:59:23;;;;;;;22.77;11.30;;;6.70;99.90;;;;;;4191745;28;20237;-75
2024/02/27 10:01:26;;;;;;;31.30;12.90;;;6.70;99.90;;;;;;4194260;28;20546;-76
2024/02/27 10:03:29;;;;;;;23.93;12.53;;;6.70;99.90;;;;;;4193414;28;20498;-77
2024/02/27 10:05:31;;;;;;;26.83;13.23;;;6.80;99.90;;;;;;4203006;28;20305;-77
2024/02/27 10:07:34;;;;;;;31.63;13.70;;;6.80;99.90;;;;;;4189481;28;20213;-75
2024/02/27 10:09:40;;;;;;;27.53;12.30;;;6.90;99.90;;;;;;4190363;28;20584;-78
2024/02/27 10:11:42;;;;;;;21.33;12.80;;;6.90;99.90;;;;;;4187494;28;20222;-77
2024/02/27 10:13:44;;;;;;;22.77;13.60;;;6.90;99.90;;;;;;4189884;28;20260;-80
2024/02/27 10:15:47;;;;;;;22.27;13.13;;;7.00;99.90;;;;;;4185752;28;20828;-77
2024/02/27 10:17:49;;;;;;;22.33;13.07;;;7.00;99.90;;;;;;4185540;28;20243;-76
2024/02/27 10:19:51;;;;;;;28.97;14.83;;;7.00;99.90;;;;;;4187677;28;20682;-77
2024/02/27 10:21:54;;;;;;;26.27;15.03;;;7.00;99.90;;;;;;4186569;28;20788;-77
2024/02/27 10:23:55;;;;;;;25.57;14.10;;;7.00;99.90;;;;;;4186822;28;20733;-77
2024/02/27 10:26:07;;;;;;;28.47;15.97;;;7.00;99.90;;;;;;4189173;28;21225;-76
2024/02/27 10:28:09;;;;;;;31.10;17.37;;;7.00;99.90;;;;;;4185174;28;20211;-77
2024/02/27 10:30:11;;;;;;;29.53;16.00;;;7.00;99.90;;;;;;4187199;28;20212;-76
2024/02/27 10:32:18;;;;;;;27.73;15.43;;;6.90;99.90;;;;;;4182788;28;20654;-78
2024/02/27 10:34:21;;;;;;;27.23;15.23;;;6.90;99.90;;;;;;4186142;28;20648;-78
2024/02/27 10:36:23;;;;;;;25.73;14.50;;;6.90;99.90;;;;;;4183822;28;20229;-78
2024/02/27 10:38:25;;;;;;;25.30;14.83;;;7.00;99.90;;;;;;4182977;28;20210;-78
2024/02/27 10:40:30;;;;;;;26.87;16.17;;;7.00;99.90;;;;;;4185656;28;20638;-77
2024/02/27 10:42:32;;;;;;;27.50;15.40;;;7.00;99.90;;;;;;4185515;28;20235;-78
2024/02/27 10:44:34;;;;;;;27.40;15.27;;;6.90;99.90;;;;;;4187652;28;20230;-77